Time;durP1;ratioP1;P1;durP2;ratioP2;P2;SDS_P1;SDS_P2;PMS_P1;PMS_P2;Temp;Humidity;BMP_temperature;BMP_pressure;BME280_temperature;BME280_humidity;BME280_pressure;Samples;Min_cycle;Max_cycle;Signal;HPM_P1;HPM_P2
2022/07/16 00:03:05;;;;;;;1.08;0.95;;;16.00;60.70;;;;;;601814;237;26614;-66
2022/07/16 00:05:32;;;;;;;1.00;1.00;;;16.00;61.00;;;;;;601818;237;26590;-66
2022/07/16 00:07:59;;;;;;;1.05;1.05;;;16.00;61.20;;;;;;601829;237;26579;-66
2022/07/16 00:10:26;;;;;;;1.10;1.00;;;16.00;61.50;;;;;;601743;237;26835;-66
2022/07/16 00:12:53;;;;;;;1.48;1.20;;;15.90;61.90;;;;;;601467;237;26611;-66
2022/07/16 00:15:21;;;;;;;1.05;1.05;;;15.90;62.10;;;;;;601548;239;26876;-66
2022/07/16 00:19:15;;;;;;;4.00;1.40;;;16.00;62.30;;;;;;601480;237;26642;-67
2022/07/16 00:20:15;;;;;;;1.42;1.30;;;16.00;62.30;;;;;;600005;239;26867;-66
2022/07/16 00:22:42;;;;;;;1.37;1.10;;;16.00;62.40;;;;;;601448;232;26660;-66
2022/07/16 00:25:09;;;;;;;1.40;1.30;;;16.00;62.40;;;;;;601506;237;26880;-66
2022/07/16 00:27:38;;;;;;;3.45;1.20;;;16.00;63.10;;;;;;601534;239;26675;-66
2022/07/16 00:30:06;;;;;;;1.05;1.00;;;15.90;63.20;;;;;;601553;238;26637;-66
2022/07/16 00:32:33;;;;;;;1.08;0.95;;;15.90;63.20;;;;;;601535;239;26644;-66
2022/07/16 00:35:01;;;;;;;1.77;0.98;;;15.90;63.60;;;;;;601548;237;26704;-66
2022/07/16 00:37:29;;;;;;;1.35;1.12;;;15.90;63.70;;;;;;601496;237;26701;-66
2022/07/16 00:39:57;;;;;;;2.37;1.27;;;15.90;63.70;;;;;;601489;237;26664;-67
2022/07/16 00:42:24;;;;;;;1.73;1.08;;;15.90;63.80;;;;;;601498;237;26661;-68
2022/07/16 00:44:52;;;;;;;1.40;1.30;;;15.90;63.70;;;;;;601546;237;26653;-66
2022/07/16 00:47:20;;;;;;;1.10;1.00;;;15.90;63.80;;;;;;602847;237;26632;-67
2022/07/16 00:49:47;;;;;;;1.20;1.20;;;15.90;63.80;;;;;;602717;238;26601;-66
2022/07/16 00:52:14;;;;;;;1.20;1.10;;;15.80;63.90;;;;;;602342;237;26842;-66
2022/07/16 00:54:41;;;;;;;1.67;1.10;;;15.80;64.90;;;;;;602361;237;26649;-66
2022/07/16 00:57:08;;;;;;;1.08;1.05;;;15.80;64.30;;;;;;602106;237;26834;-67
2022/07/16 00:59:36;;;;;;;1.02;1.00;;;15.90;64.40;;;;;;602010;239;26574;-66
2022/07/16 01:02:03;;;;;;;1.10;1.10;;;15.80;65.40;;;;;;602072;239;26851;-65
2022/07/16 01:04:31;;;;;;;0.90;0.90;;;15.80;64.70;;;;;;602020;237;26814;-66
2022/07/16 01:06:58;;;;;;;1.23;1.10;;;15.80;64.90;;;;;;601779;232;26586;-66
2022/07/16 01:09:25;;;;;;;1.10;1.00;;;15.70;65.10;;;;;;601818;237;27121;-65
2022/07/16 01:11:52;;;;;;;1.10;1.00;;;15.70;65.40;;;;;;601832;237;26613;-65
2022/07/16 01:14:20;;;;;;;2.03;1.20;;;15.70;65.30;;;;;;601830;232;26578;-66
2022/07/16 01:16:47;;;;;;;1.25;1.10;;;15.70;65.50;;;;;;601833;237;26583;-66
2022/07/16 01:19:15;;;;;;;0.88;0.88;;;15.70;65.50;;;;;;601859;239;26597;-65
2022/07/16 01:21:43;;;;;;;1.20;1.10;;;15.70;65.90;;;;;;601735;239;26605;-66
2022/07/16 01:24:11;;;;;;;0.98;0.98;;;15.60;66.10;;;;;;601529;238;26638;-66
2022/07/16 01:26:39;;;;;;;1.10;1.00;;;15.60;66.90;;;;;;601561;237;26630;-66
2022/07/16 01:29:06;;;;;;;1.00;1.00;;;15.60;66.40;;;;;;601501;239;26693;-66
2022/07/16 01:31:34;;;;;;;1.17;1.08;;;15.60;66.60;;;;;;601495;239;26674;-66
2022/07/16 01:36:34;;;;;;;0.95;0.95;;;15.60;66.90;;;;;;601566;239;27139;-66
2022/07/16 01:39:02;;;;;;;1.20;1.10;;;15.50;67.70;;;;;;601554;237;26608;-65
2022/07/16 01:41:30;;;;;;;1.27;0.88;;;15.40;68.00;;;;;;601562;237;26650;-65
2022/07/16 01:43:58;;;;;;;0.88;0.88;;;15.40;68.20;;;;;;601637;238;26651;-65
2022/07/16 01:46:26;;;;;;;0.90;0.90;;;15.30;68.50;;;;;;601619;237;26649;-66
2022/07/16 01:48:53;;;;;;;1.48;0.80;;;15.30;68.40;;;;;;601644;237;26642;-66
2022/07/16 01:51:20;;;;;;;1.08;1.08;;;15.30;68.70;;;;;;601557;239;26610;-66
2022/07/16 01:53:47;;;;;;;1.17;0.82;;;15.30;68.90;;;;;;601645;239;26872;-66
2022/07/16 01:56:14;;;;;;;0.80;0.80;;;15.30;68.90;;;;;;601618;238;26657;-66
2022/07/16 01:58:42;;;;;;;0.90;0.90;;;15.30;69.10;;;;;;602806;237;26666;-66
2022/07/16 02:01:10;;;;;;;1.55;0.85;;;15.30;69.20;;;;;;602736;237;26629;-66
2022/07/16 02:03:38;;;;;;;1.17;0.77;;;15.30;69.10;;;;;;602516;237;26646;-66
2022/07/16 02:06:05;;;;;;;0.93;0.90;;;15.30;69.10;;;;;;602468;237;26593;-66
2022/07/16 02:08:33;;;;;;;1.05;0.90;;;15.40;69.20;;;;;;602143;232;26569;-66
2022/07/16 02:11:00;;;;;;;0.80;0.80;;;15.40;69.00;;;;;;602080;238;26821;-66
2022/07/16 02:13:27;;;;;;;1.40;0.80;;;15.40;68.80;;;;;;602092;239;26581;-66
2022/07/16 02:15:54;;;;;;;1.25;0.80;;;15.50;68.80;;;;;;601984;237;26922;-66
2022/07/16 02:18:21;;;;;;;1.75;0.90;;;15.50;68.70;;;;;;601828;239;26587;-66
2022/07/16 02:20:49;;;;;;;1.75;0.95;;;15.40;68.60;;;;;;601769;238;26824;-66
2022/07/16 02:23:16;;;;;;;0.80;0.80;;;15.50;68.40;;;;;;601793;239;26586;-66
2022/07/16 02:25:44;;;;;;;0.80;0.80;;;15.40;68.30;;;;;;601796;239;27262;-66
2022/07/16 02:28:11;;;;;;;3.05;1.12;;;15.30;68.80;;;;;;602162;239;26565;-66
2022/07/16 02:30:42;;;;;;;0.77;0.77;;;15.40;67.90;;;;;;602196;238;26551;-66
2022/07/16 02:33:10;;;;;;;0.90;0.90;;;15.30;67.80;;;;;;602123;239;26579;-66
2022/07/16 02:35:38;;;;;;;1.05;0.93;;;15.30;68.50;;;;;;601884;237;26563;-66
2022/07/16 02:38:06;;;;;;;1.70;1.00;;;15.30;67.70;;;;;;601893;237;26607;-66
2022/07/16 02:40:33;;;;;;;0.70;0.70;;;15.30;67.70;;;;;;601895;237;26607;-66
2022/07/16 02:43:00;;;;;;;0.73;0.73;;;15.30;67.60;;;;;;601872;239;26647;-66
2022/07/16 02:45:27;;;;;;;0.82;0.82;;;15.30;67.70;;;;;;601934;239;26801;-66
2022/07/16 02:47:55;;;;;;;0.70;0.70;;;15.30;67.50;;;;;;601625;239;26623;-66
2022/07/16 02:50:23;;;;;;;1.20;0.80;;;15.30;67.30;;;;;;601559;237;26634;-66
2022/07/16 02:52:50;;;;;;;0.80;0.80;;;15.30;67.20;;;;;;601533;239;26661;-66
2022/07/16 02:55:17;;;;;;;0.80;0.68;;;15.30;67.20;;;;;;601515;238;26871;-66
2022/07/16 02:57:44;;;;;;;0.90;0.85;;;15.30;67.10;;;;;;601537;238;26656;-66
2022/07/16 03:00:12;;;;;;;0.80;0.80;;;15.40;67.10;;;;;;601466;238;26840;-66
2022/07/16 03:02:39;;;;;;;1.33;0.80;;;15.50;66.80;;;;;;601463;239;26638;-66
2022/07/16 03:05:08;;;;;;;1.35;0.80;;;15.50;66.80;;;;;;601400;237;27313;-66
2022/07/16 03:07:34;;;;;;;0.90;0.90;;;15.50;66.90;;;;;;601524;239;26661;-66
2022/07/16 03:10:02;;;;;;;0.90;0.90;;;15.50;66.60;;;;;;602663;237;26796;-66
2022/07/16 03:12:29;;;;;;;1.10;1.00;;;15.50;66.30;;;;;;602801;238;26663;-66
2022/07/16 03:14:57;;;;;;;0.85;0.85;;;15.60;66.60;;;;;;602576;237;26799;-66
2022/07/16 03:17:23;;;;;;;0.50;0.50;;;15.60;66.30;;;;;;602338;238;26657;-66
2022/07/16 03:19:50;;;;;;;0.60;0.60;;;15.70;65.90;;;;;;602215;238;26858;-66
2022/07/16 03:22:18;;;;;;;1.30;0.73;;;15.70;65.50;;;;;;602065;237;26602;-66
2022/07/16 03:24:45;;;;;;;1.17;0.80;;;15.70;65.30;;;;;;602121;238;26852;-66
2022/07/16 03:27:13;;;;;;;0.80;0.80;;;15.80;64.90;;;;;;602015;237;26586;-67
2022/07/16 03:29:41;;;;;;;0.60;0.60;;;15.80;64.70;;;;;;601850;238;26600;-66
2022/07/16 03:32:09;;;;;;;0.70;0.70;;;15.80;64.50;;;;;;601798;232;26602;-66
2022/07/16 03:34:36;;;;;;;1.10;0.98;;;15.80;64.50;;;;;;601766;237;26593;-66
2022/07/16 03:37:03;;;;;;;0.95;0.82;;;15.80;64.40;;;;;;601834;237;26811;-66
2022/07/16 03:39:30;;;;;;;1.23;0.73;;;15.80;64.20;;;;;;601769;239;26854;-66
2022/07/16 03:41:57;;;;;;;0.80;0.80;;;15.80;65.00;;;;;;601723;237;26617;-66
2022/07/16 03:44:25;;;;;;;0.95;0.82;;;15.80;65.50;;;;;;601716;237;26829;-66
2022/07/16 03:46:52;;;;;;;0.60;0.60;;;15.80;67.00;;;;;;601550;232;26617;-66
2022/07/16 03:49:19;;;;;;;1.67;0.88;;;15.80;67.70;;;;;;601510;232;26871;-66
2022/07/16 03:51:46;;;;;;;1.37;0.80;;;15.70;69.30;;;;;;601503;237;26671;-66
2022/07/16 03:54:14;;;;;;;0.80;0.80;;;15.60;70.30;;;;;;601518;239;26658;-66
2022/07/16 03:56:42;;;;;;;1.08;0.77;;;15.50;70.90;;;;;;601525;237;27224;-66
2022/07/16 03:59:10;;;;;;;1.55;0.93;;;15.40;71.00;;;;;;601577;238;26959;-67
2022/07/16 04:01:37;;;;;;;1.37;0.95;;;15.50;70.90;;;;;;601417;238;26673;-67
2022/07/16 04:04:05;;;;;;;0.70;0.70;;;15.50;70.60;;;;;;601531;237;26657;-66
2022/07/16 04:06:33;;;;;;;0.88;0.88;;;15.50;71.50;;;;;;601588;237;26614;-67
2022/07/16 04:09:02;;;;;;;1.05;0.80;;;15.50;70.30;;;;;;601532;238;26622;-67
2022/07/16 04:11:29;;;;;;;0.60;0.60;;;15.50;70.50;;;;;;601450;239;26660;-66
2022/07/16 04:13:57;;;;;;;0.70;0.70;;;15.60;70.40;;;;;;601534;239;26623;-67
2022/07/16 04:16:25;;;;;;;1.10;0.75;;;15.60;69.30;;;;;;601558;238;26643;-66
2022/07/16 04:18:52;;;;;;;5.62;0.90;;;15.60;69.30;;;;;;601538;238;26654;-66
2022/07/16 04:21:19;;;;;;;0.82;0.82;;;15.60;70.00;;;;;;602400;237;26707;-67
2022/07/16 04:23:47;;;;;;;1.17;0.77;;;15.70;69.40;;;;;;602779;236;26831;-67
2022/07/16 04:26:14;;;;;;;1.10;0.80;;;15.80;69.50;;;;;;602543;237;26600;-67
2022/07/16 04:28:43;;;;;;;0.60;0.60;;;15.80;69.20;;;;;;602399;238;26623;-67
2022/07/16 04:31:10;;;;;;;0.50;0.50;;;15.80;69.20;;;;;;602091;237;27289;-66
2022/07/16 04:33:38;;;;;;;0.70;0.70;;;16.00;68.30;;;;;;602109;239;26577;-67
2022/07/16 04:36:06;;;;;;;0.50;0.50;;;16.10;67.60;;;;;;602054;237;26581;-66
2022/07/16 04:38:34;;;;;;;0.60;0.60;;;16.10;67.60;;;;;;602046;239;26589;-67
2022/07/16 04:41:01;;;;;;;0.52;0.52;;;16.10;67.50;;;;;;601852;239;26596;-67
2022/07/16 04:43:28;;;;;;;0.52;0.52;;;16.10;67.40;;;;;;601807;237;26829;-66
2022/07/16 04:45:55;;;;;;;0.73;0.73;;;16.10;66.70;;;;;;601823;239;26799;-66
2022/07/16 04:48:22;;;;;;;0.57;0.57;;;16.10;66.30;;;;;;601808;238;26799;-66
2022/07/16 04:50:50;;;;;;;0.50;0.50;;;16.10;66.40;;;;;;601765;237;26570;-66
2022/07/16 04:53:17;;;;;;;0.70;0.62;;;16.00;66.00;;;;;;601804;239;26836;-67
2022/07/16 04:55:44;;;;;;;0.60;0.60;;;16.00;65.80;;;;;;601812;237;26596;-66
2022/07/16 04:58:11;;;;;;;0.80;0.80;;;16.00;65.90;;;;;;601606;239;26885;-65
2022/07/16 05:00:39;;;;;;;0.50;0.50;;;16.00;65.70;;;;;;601494;238;26637;-66
2022/07/16 05:03:08;;;;;;;0.90;0.70;;;16.00;65.50;;;;;;601515;238;26661;-66
2022/07/16 05:05:35;;;;;;;0.70;0.70;;;16.00;65.50;;;;;;601515;239;26835;-65
2022/07/16 05:08:02;;;;;;;1.37;0.70;;;16.00;64.40;;;;;;601572;239;26652;-65
2022/07/16 05:10:29;;;;;;;1.02;0.70;;;16.00;64.20;;;;;;601581;239;26644;-65
2022/07/16 05:12:56;;;;;;;0.57;0.50;;;16.00;63.40;;;;;;601442;237;26897;-66
2022/07/16 05:15:24;;;;;;;1.37;0.60;;;16.10;63.00;;;;;;601549;237;26637;-66
2022/07/16 05:17:52;;;;;;;0.93;0.80;;;16.20;63.00;;;;;;601514;237;26688;-66
2022/07/16 05:20:20;;;;;;;0.57;0.57;;;16.20;63.00;;;;;;601435;238;27165;-65
2022/07/16 05:22:48;;;;;;;0.60;0.60;;;16.20;63.80;;;;;;601421;237;26902;-66
2022/07/16 05:25:15;;;;;;;0.65;0.65;;;16.20;63.20;;;;;;601414;239;26832;-65
2022/07/16 05:27:43;;;;;;;0.47;0.47;;;16.30;62.40;;;;;;601477;237;26644;-66
2022/07/16 05:30:10;;;;;;;0.73;0.70;;;16.40;62.00;;;;;;601489;239;27136;-65
2022/07/16 05:32:38;;;;;;;0.50;0.50;;;16.70;61.20;;;;;;602153;237;26676;-66
2022/07/16 05:35:07;;;;;;;0.60;0.60;;;16.80;60.70;;;;;;602891;238;26610;-66
2022/07/16 05:37:34;;;;;;;1.20;0.80;;;16.80;60.70;;;;;;602523;237;26562;-65
2022/07/16 05:40:01;;;;;;;1.90;0.80;;;16.90;60.50;;;;;;602395;239;26966;-66
2022/07/16 05:42:29;;;;;;;1.92;0.93;;;16.90;60.10;;;;;;602140;237;26685;-66
2022/07/16 05:44:56;;;;;;;0.57;0.57;;;16.90;59.90;;;;;;602104;239;26614;-66
2022/07/16 05:47:28;;;;;;;2.60;0.80;;;16.90;59.90;;;;;;602056;238;26594;-66
2022/07/16 05:49:56;;;;;;;0.77;0.60;;;16.90;59.90;;;;;;605843;234;26591;-66
2022/07/16 05:52:23;;;;;;;4.15;1.00;;;17.00;59.90;;;;;;606090;231;27404;-66
2022/07/16 05:54:50;;;;;;;3.60;0.80;;;17.00;59.70;;;;;;606698;234;26574;-66
2022/07/16 05:57:18;;;;;;;1.42;0.95;;;16.90;59.90;;;;;;603307;236;26820;-65
2022/07/16 05:59:46;;;;;;;1.40;0.90;;;16.80;60.10;;;;;;605693;236;26584;-66
2022/07/16 06:02:13;;;;;;;2.22;0.90;;;16.80;60.50;;;;;;604564;236;26844;-67
2022/07/16 06:04:40;;;;;;;1.55;0.70;;;16.80;62.50;;;;;;606578;235;26660;-66
2022/07/16 06:07:07;;;;;;;3.25;0.73;;;16.60;64.50;;;;;;604060;232;26828;-66
2022/07/16 06:09:35;;;;;;;2.22;0.65;;;16.30;70.40;;;;;;606099;235;26640;-66
2022/07/16 06:12:02;;;;;;;2.95;0.90;;;16.00;74.10;;;;;;605899;235;26900;-65
2022/07/16 06:14:31;;;;;;;2.25;0.90;;;15.70;78.10;;;;;;604806;235;26635;-66
2022/07/16 06:16:58;;;;;;;1.83;0.70;;;15.40;85.50;;;;;;602833;238;26584;-66
2022/07/16 06:19:26;;;;;;;1.25;1.00;;;14.90;91.50;;;;;;605331;235;26625;-66
2022/07/16 06:21:54;;;;;;;2.87;0.90;;;14.90;91.60;;;;;;606509;235;26663;-66
2022/07/16 06:24:21;;;;;;;0.77;0.70;;;14.90;91.60;;;;;;606011;235;26639;-66
2022/07/16 06:26:49;;;;;;;0.62;0.60;;;14.70;93.40;;;;;;606718;235;26832;-66
2022/07/16 06:29:16;;;;;;;2.37;0.90;;;14.70;94.70;;;;;;606104;235;26633;-66
2022/07/16 06:31:44;;;;;;;2.45;1.00;;;14.70;95.70;;;;;;603494;236;26906;-66
2022/07/16 06:34:11;;;;;;;0.60;0.60;;;14.80;95.90;;;;;;604849;235;26617;-66
2022/07/16 06:36:38;;;;;;;0.95;0.80;;;14.80;96.80;;;;;;604037;236;26868;-66
2022/07/16 06:39:05;;;;;;;1.00;0.70;;;14.70;98.30;;;;;;605090;236;26637;-66
2022/07/16 06:41:33;;;;;;;3.40;1.10;;;14.50;99.90;;;;;;605983;234;26884;-66
2022/07/16 06:44:01;;;;;;;0.70;0.70;;;14.40;99.90;;;;;;603592;235;26640;-66
2022/07/16 06:46:29;;;;;;;1.17;1.00;;;14.50;99.90;;;;;;604999;231;26593;-66
2022/07/16 06:48:56;;;;;;;1.00;0.80;;;14.40;99.90;;;;;;604879;234;26596;-66
2022/07/16 06:51:23;;;;;;;0.80;0.80;;;14.50;99.90;;;;;;605028;234;26612;-66
2022/07/16 06:53:50;;;;;;;1.85;0.82;;;14.60;99.90;;;;;;605805;235;26639;-66
2022/07/16 06:56:17;;;;;;;0.93;0.73;;;14.70;99.90;;;;;;606703;234;26602;-65
2022/07/16 06:58:45;;;;;;;1.35;0.95;;;14.80;99.90;;;;;;605954;234;26890;-65
2022/07/16 07:01:13;;;;;;;0.80;0.80;;;14.90;99.90;;;;;;604386;236;26626;-66
2022/07/16 07:03:41;;;;;;;0.98;0.95;;;15.40;99.90;;;;;;605543;235;26830;-66
2022/07/16 07:06:08;;;;;;;0.88;0.88;;;15.30;99.90;;;;;;606323;234;26833;-65
2022/07/16 07:08:35;;;;;;;2.17;1.02;;;15.50;99.90;;;;;;605260;235;26601;-67
2022/07/16 07:11:02;;;;;;;1.00;1.00;;;15.50;99.90;;;;;;605228;234;26808;-66
2022/07/16 07:13:30;;;;;;;1.05;0.93;;;15.60;99.90;;;;;;606880;234;26635;-66
2022/07/16 07:15:57;;;;;;;1.92;1.08;;;15.80;99.90;;;;;;603354;235;26578;-66
2022/07/16 07:18:25;;;;;;;1.12;1.02;;;16.10;99.90;;;;;;609526;233;26675;-66
2022/07/16 07:20:52;;;;;;;1.75;1.00;;;16.20;99.90;;;;;;604618;234;26599;-65
2022/07/16 07:23:20;;;;;;;1.30;0.90;;;16.10;99.90;;;;;;605168;235;26652;-66
2022/07/16 07:25:47;;;;;;;0.77;0.77;;;16.20;99.90;;;;;;604229;234;26926;-66
2022/07/16 07:28:14;;;;;;;0.90;0.90;;;16.40;99.90;;;;;;603648;236;26630;-65
2022/07/16 07:30:41;;;;;;;1.05;0.93;;;16.50;99.90;;;;;;603142;236;26855;-65
2022/07/16 07:33:08;;;;;;;1.00;0.90;;;16.80;99.10;;;;;;610688;235;26652;-65
2022/07/16 07:35:36;;;;;;;0.90;0.90;;;16.70;98.10;;;;;;609955;235;26602;-65
2022/07/16 07:38:03;;;;;;;0.90;0.80;;;16.60;98.60;;;;;;604610;237;26584;-65
2022/07/16 07:40:30;;;;;;;1.45;0.90;;;16.90;97.70;;;;;;606741;236;26856;-66
2022/07/16 07:42:59;;;;;;;1.73;0.90;;;17.40;96.80;;;;;;604736;235;26604;-66
2022/07/16 07:45:24;;;;;;;1.48;1.05;;;17.40;96.30;;;;;;601689;238;26844;-66
2022/07/16 07:47:52;;;;;;;1.67;0.90;;;17.30;95.70;;;;;;610799;235;26634;-65
2022/07/16 07:50:19;;;;;;;0.90;0.73;;;17.10;95.80;;;;;;601536;237;26849;-66
2022/07/16 07:52:46;;;;;;;1.00;0.95;;;17.40;95.40;;;;;;605855;236;26600;-66
2022/07/16 07:55:14;;;;;;;2.42;1.02;;;17.60;93.80;;;;;;606252;235;26627;-65
2022/07/16 07:57:42;;;;;;;2.15;1.10;;;17.40;94.50;;;;;;606069;236;27214;-66
2022/07/16 08:00:09;;;;;;;1.55;1.00;;;17.50;93.50;;;;;;604823;237;26651;-65
2022/07/16 08:02:39;;;;;;;1.40;0.80;;;17.20;93.40;;;;;;602305;237;26625;-66
2022/07/16 08:05:09;;;;;;;2.83;0.90;;;17.10;94.00;;;;;;604193;237;26610;-66
2022/07/16 08:07:35;;;;;;;1.37;1.05;;;17.10;94.00;;;;;;604957;237;26674;-66
2022/07/16 08:10:02;;;;;;;3.20;0.93;;;17.40;93.60;;;;;;602883;238;26957;-66
2022/07/16 08:12:29;;;;;;;1.00;0.90;;;17.30;94.30;;;;;;603914;237;26632;-66
2022/07/16 08:14:57;;;;;;;2.47;0.93;;;18.10;90.60;;;;;;603728;237;26586;-66
2022/07/16 08:17:25;;;;;;;2.37;0.88;;;18.50;90.50;;;;;;604360;238;26585;-66
2022/07/16 08:19:53;;;;;;;1.67;0.80;;;18.20;87.70;;;;;;603170;236;26581;-66
2022/07/16 08:22:21;;;;;;;1.30;0.90;;;18.20;87.70;;;;;;607711;236;26627;-66
2022/07/16 08:27:21;;;;;;;0.77;0.77;;;18.40;87.70;;;;;;602462;238;26594;-66
2022/07/16 08:29:48;;;;;;;1.10;0.98;;;18.00;85.20;;;;;;602185;237;26823;-65
2022/07/16 08:32:15;;;;;;;1.05;1.00;;;17.80;86.90;;;;;;603644;237;26598;-66
2022/07/16 08:34:42;;;;;;;0.80;0.80;;;17.90;85.60;;;;;;603025;238;27293;-66
2022/07/16 08:37:10;;;;;;;1.12;0.95;;;18.10;81.30;;;;;;603691;235;26630;-65
2022/07/16 08:39:38;;;;;;;0.88;0.88;;;18.70;77.20;;;;;;603551;238;26605;-66
2022/07/16 08:42:05;;;;;;;1.00;0.90;;;18.70;77.70;;;;;;602194;238;26690;-66
2022/07/16 08:44:33;;;;;;;0.90;0.90;;;19.00;75.60;;;;;;605304;236;26654;-66
2022/07/16 08:47:00;;;;;;;1.77;1.10;;;19.10;73.00;;;;;;606676;236;26817;-65
2022/07/16 08:49:27;;;;;;;1.55;1.00;;;19.10;71.20;;;;;;603861;235;26643;-66
2022/07/16 08:51:54;;;;;;;1.15;1.05;;;18.90;71.90;;;;;;608346;235;26884;-66
2022/07/16 08:54:21;;;;;;;1.40;1.30;;;18.60;70.40;;;;;;601591;236;26606;-66
2022/07/16 08:56:50;;;;;;;0.98;0.98;;;18.90;70.70;;;;;;610254;236;26549;-66
2022/07/16 08:59:17;;;;;;;1.67;1.10;;;19.10;69.00;;;;;;606336;236;26600;-66
2022/07/16 09:01:44;;;;;;;0.82;0.82;;;19.30;68.20;;;;;;611893;235;26857;-66
2022/07/16 09:04:11;;;;;;;1.30;1.00;;;19.80;64.90;;;;;;610978;230;26556;-66
2022/07/16 09:06:38;;;;;;;2.60;1.30;;;19.70;62.10;;;;;;607646;234;26604;-66
2022/07/16 09:09:06;;;;;;;1.37;1.08;;;19.20;61.60;;;;;;609068;235;26554;-66
2022/07/16 09:11:34;;;;;;;1.73;1.00;;;19.10;62.20;;;;;;606912;235;26625;-66
2022/07/16 09:14:18;;;;;;;1.20;1.10;;;19.10;62.30;;;;;;609265;235;26612;-66
2022/07/16 09:16:45;;;;;;;1.10;0.95;;;19.20;60.70;;;;;;605355;236;26583;-66
2022/07/16 09:19:21;;;;;;;0.82;0.70;;;19.00;61.10;;;;;;604868;236;26545;-66
2022/07/16 09:21:58;;;;;;;1.83;0.90;;;18.90;61.30;;;;;;602786;238;26628;-66
2022/07/16 09:24:31;;;;;;;1.23;0.90;;;18.90;59.10;;;;;;610159;234;26565;-65
2022/07/16 09:27:01;;;;;;;0.98;0.88;;;18.90;59.20;;;;;;606913;236;27195;-66
2022/07/16 09:29:28;;;;;;;0.90;0.90;;;19.50;59.10;;;;;;605750;235;26574;-67
2022/07/16 09:31:55;;;;;;;1.83;0.93;;;19.90;57.20;;;;;;602567;237;26622;-66
2022/07/16 09:34:23;;;;;;;0.88;0.88;;;19.80;56.20;;;;;;602913;237;26835;-66
2022/07/16 09:36:56;;;;;;;0.70;0.70;;;19.80;56.20;;;;;;608592;235;26591;-66
2022/07/16 09:39:23;;;;;;;0.80;0.80;;;19.80;54.80;;;;;;610715;234;26600;-67
2022/07/16 09:41:51;;;;;;;0.90;0.90;;;19.60;54.90;;;;;;601908;236;26645;-67
2022/07/16 09:44:20;;;;;;;0.80;0.80;;;19.60;53.50;;;;;;601530;237;26589;-66
2022/07/16 09:46:57;;;;;;;0.75;0.75;;;19.70;53.50;;;;;;601440;237;26885;-66
2022/07/16 09:49:25;;;;;;;0.95;0.80;;;19.80;51.70;;;;;;603954;233;26560;-66
2022/07/16 09:51:53;;;;;;;1.10;1.00;;;19.90;51.20;;;;;;601991;236;26651;-65
2022/07/16 09:54:27;;;;;;;0.65;0.65;;;19.90;51.00;;;;;;602198;235;26627;-66
2022/07/16 09:57:05;;;;;;;0.85;0.75;;;19.90;51.00;;;;;;603725;238;26596;-66
2022/07/16 09:59:33;;;;;;;0.95;0.90;;;19.90;51.40;;;;;;601491;238;26666;-67
2022/07/16 10:02:00;;;;;;;1.05;0.70;;;20.00;51.30;;;;;;601462;237;26901;-67
2022/07/16 10:04:27;;;;;;;1.75;0.68;;;20.10;51.00;;;;;;602989;237;26596;-66
2022/07/16 10:06:54;;;;;;;1.23;0.60;;;20.20;50.00;;;;;;608186;236;26835;-71
2022/07/16 10:09:21;;;;;;;1.08;0.75;;;20.30;49.70;;;;;;604793;236;26683;-73
2022/07/16 10:11:49;;;;;;;1.73;0.90;;;20.20;49.20;;;;;;606263;236;26878;-72
2022/07/16 10:14:16;;;;;;;1.30;0.93;;;20.30;49.40;;;;;;607654;235;26598;-75
2022/07/16 10:16:45;;;;;;;0.98;0.85;;;19.90;49.70;;;;;;608333;236;26568;-74
2022/07/16 10:19:11;;;;;;;3.20;0.88;;;19.90;50.00;;;;;;608576;233;26589;-73
2022/07/16 10:21:39;;;;;;;0.88;0.85;;;20.40;49.60;;;;;;606082;235;26595;-75
2022/07/16 10:24:07;;;;;;;1.25;0.85;;;20.40;49.60;;;;;;611692;234;26582;-74
2022/07/16 10:26:35;;;;;;;2.20;1.17;;;20.40;49.60;;;;;;609569;234;26557;-75
2022/07/16 10:29:02;;;;;;;2.17;0.70;;;20.50;49.60;;;;;;608671;235;26852;-75
2022/07/16 10:31:33;;;;;;;2.87;1.27;;;20.20;49.10;;;;;;603146;236;26585;-74
2022/07/16 10:34:26;;;;;;;1.77;1.10;;;19.80;49.10;;;;;;601941;239;26604;-74
2022/07/16 10:36:54;;;;;;;1.33;1.10;;;19.70;49.30;;;;;;600868;238;26573;-74
2022/07/16 10:39:22;;;;;;;3.70;1.10;;;19.90;48.60;;;;;;605045;236;26595;-74
2022/07/16 10:41:50;;;;;;;2.30;0.90;;;20.50;48.30;;;;;;607455;231;26639;-74
2022/07/16 10:44:18;;;;;;;4.80;1.10;;;20.40;47.40;;;;;;605786;236;26600;-74
2022/07/16 10:46:56;;;;;;;4.65;1.17;;;20.10;47.70;;;;;;604308;235;26612;-75
2022/07/16 10:49:24;;;;;;;7.47;1.10;;;20.00;47.20;;;;;;602491;236;26617;-74
2022/07/16 10:51:58;;;;;;;1.42;1.00;;;20.10;47.30;;;;;;610303;236;26666;-74
2022/07/16 10:54:25;;;;;;;2.03;0.98;;;19.90;47.30;;;;;;610048;236;26705;-74
2022/07/16 10:56:52;;;;;;;2.25;1.10;;;19.60;48.10;;;;;;605843;235;26846;-74
2022/07/16 10:59:20;;;;;;;2.47;0.90;;;19.60;48.40;;;;;;604193;232;26550;-75
2022/07/16 11:01:47;;;;;;;1.73;1.00;;;19.80;48.10;;;;;;602262;236;26867;-74
2022/07/16 11:04:14;;;;;;;0.98;0.93;;;20.10;47.80;;;;;;604442;237;26594;-75
2022/07/16 11:06:41;;;;;;;1.30;1.00;;;20.30;47.70;;;;;;608018;236;26857;-75
2022/07/16 11:09:08;;;;;;;2.35;0.98;;;20.60;47.10;;;;;;602467;236;26674;-75
2022/07/16 11:11:36;;;;;;;0.73;0.70;;;20.60;46.50;;;;;;603872;238;26571;-75
2022/07/16 11:14:04;;;;;;;1.27;0.80;;;20.90;46.40;;;;;;602639;238;26610;-75
2022/07/16 11:16:32;;;;;;;3.83;0.90;;;20.90;45.80;;;;;;602757;237;26580;-74
2022/07/16 11:19:00;;;;;;;2.22;0.93;;;20.50;45.20;;;;;;603617;235;26645;-75
2022/07/16 11:21:27;;;;;;;1.27;0.90;;;20.50;45.40;;;;;;604318;237;26611;-75
2022/07/16 11:23:55;;;;;;;0.88;0.82;;;20.40;45.30;;;;;;604559;238;26598;-75
2022/07/16 11:26:23;;;;;;;0.70;0.70;;;20.30;45.40;;;;;;607339;236;26667;-74
2022/07/16 11:28:52;;;;;;;2.15;0.90;;;20.60;45.00;;;;;;609835;236;26542;-75
2022/07/16 11:31:30;;;;;;;2.15;0.85;;;20.60;45.00;;;;;;605922;235;26870;-74
2022/07/16 11:33:58;;;;;;;1.58;0.90;;;21.10;44.40;;;;;;603747;237;26868;-75
2022/07/16 11:36:25;;;;;;;2.15;0.80;;;21.00;44.10;;;;;;604056;232;26562;-75
2022/07/16 11:38:57;;;;;;;0.93;0.70;;;21.20;43.00;;;;;;602687;238;26606;-74
2022/07/16 11:41:24;;;;;;;1.83;0.98;;;21.40;42.70;;;;;;604857;238;26849;-75
2022/07/16 11:43:52;;;;;;;1.87;0.93;;;21.50;42.10;;;;;;605082;236;26567;-75
2022/07/16 11:46:21;;;;;;;1.85;0.80;;;21.10;42.30;;;;;;606591;236;26839;-75
2022/07/16 11:48:49;;;;;;;1.35;0.80;;;20.70;42.50;;;;;;601979;239;26585;-75
2022/07/16 11:51:17;;;;;;;3.45;0.82;;;20.20;41.70;;;;;;602439;235;26590;-75
2022/07/16 11:53:50;;;;;;;2.40;0.93;;;20.20;41.70;;;;;;612046;235;26603;-75
2022/07/16 11:56:37;;;;;;;0.60;0.60;;;20.40;41.50;;;;;;609753;235;26650;-74
2022/07/16 11:59:04;;;;;;;1.95;0.90;;;20.70;41.40;;;;;;605820;235;26600;-74
2022/07/16 12:01:32;;;;;;;0.80;0.80;;;20.80;39.80;;;;;;600756;238;26854;-76
2022/07/16 12:04:00;;;;;;;0.80;0.80;;;20.50;39.00;;;;;;603652;232;26602;-74
2022/07/16 12:06:27;;;;;;;2.22;0.80;;;20.50;39.00;;;;;;603397;238;26594;-75
2022/07/16 12:08:55;;;;;;;0.88;0.70;;;20.50;39.10;;;;;;602295;238;26684;-74
2022/07/16 12:11:32;;;;;;;0.68;0.68;;;20.40;39.00;;;;;;601455;237;26961;-74
2022/07/16 12:14:02;;;;;;;1.87;0.95;;;21.30;38.30;;;;;;602660;237;26649;-74
2022/07/16 12:16:28;;;;;;;1.10;0.95;;;21.30;38.30;;;;;;602813;238;26816;-75
2022/07/16 12:19:06;;;;;;;1.62;0.55;;;21.40;37.60;;;;;;603180;238;26977;-74
2022/07/16 12:21:33;;;;;;;1.55;0.88;;;21.30;38.20;;;;;;608628;236;26654;-74
2022/07/16 12:24:01;;;;;;;1.12;0.57;;;21.20;38.40;;;;;;603350;237;26837;-75
2022/07/16 12:26:30;;;;;;;0.82;0.82;;;20.90;38.70;;;;;;603233;237;26836;-74
2022/07/16 12:28:57;;;;;;;1.20;0.80;;;21.10;38.90;;;;;;608909;236;26560;-73
2022/07/16 12:31:26;;;;;;;0.80;0.80;;;21.10;38.60;;;;;;610926;235;26983;-73
2022/07/16 12:33:54;;;;;;;0.93;0.75;;;21.30;38.90;;;;;;601640;239;26638;-74
2022/07/16 12:36:22;;;;;;;1.73;0.90;;;21.10;38.20;;;;;;601500;238;26639;-74
2022/07/16 12:38:54;;;;;;;1.15;0.80;;;21.00;38.50;;;;;;603014;238;26582;-75
2022/07/16 12:41:22;;;;;;;0.95;0.50;;;20.90;38.40;;;;;;609359;236;26605;-74
2022/07/16 12:43:53;;;;;;;1.08;0.70;;;21.10;38.80;;;;;;609891;235;26880;-74
2022/07/16 12:46:18;;;;;;;1.05;0.85;;;21.90;38.10;;;;;;603924;237;26642;-75
2022/07/16 12:48:47;;;;;;;1.17;0.80;;;21.80;37.80;;;;;;604525;237;26586;-74
2022/07/16 12:51:14;;;;;;;0.93;0.65;;;21.80;37.80;;;;;;609422;235;26607;-75
2022/07/16 12:53:42;;;;;;;0.80;0.70;;;21.90;37.50;;;;;;602061;237;26863;-73
2022/07/16 12:58:47;;;;;;;2.65;0.70;;;22.00;38.00;;;;;;604414;236;26591;-74
2022/07/16 13:01:16;;;;;;;2.95;1.00;;;22.00;38.00;;;;;;607861;236;26607;-75